Williams, Minnesota
Current Conditions -  °F | °C
As of 7:53 AM on Saturday 25 Oct 2014 (Local Time) from KBDE Reporting Station
Clear Clear  
Wind Chill: 37°   Ceiling: Unl
Heat Index: 42°   Visibility: 10mi
Dew Point: 31°   Wind: 8mph
Humidity: 65%   Direction: 280°W
Pressure: 29.9"   Gusts: 17mph
Location:  48.77°N, 94.96°W
Report Text: KBDE 251253Z AUTO 28007G15KT 250V310 10SM CLR 06/M01 A2990 RMK AO2 SLP131 T00561006 TSNO
Loading
Personal Weather Stations






























Interactive Weather Map
Tropical Storm Tracking
New forecast layout! Learn more

10-Day Weather Forecast

Advertisements
Track Severe Weather on mobile